Time;durP1;ratioP1;P1;durP2;ratioP2;P2;SDS_P1;SDS_P2;PMS_P1;PMS_P2;Temp;Humidity;BMP_temperature;BMP_pressure;BME280_temperature;BME280_humidity;BME280_pressure;Samples;Min_cycle;Max_cycle;Signal;HPM_P1;HPM_P2
2021/12/19 00:00:31;;;;;;;15.80;9.15;;;;;;;;;;4956590;28;20045;-82
2021/12/19 00:08:42;;;;;;;15.27;8.40;;;;;;;;;;4995379;28;20121;-83
2021/12/19 00:11:08;;;;;;;13.88;7.20;;;;;;;;;;4997209;28;20057;-83
2021/12/19 00:13:36;;;;;;;15.82;8.10;;;;;;;;;;4982661;28;20037;-82
2021/12/19 00:16:03;;;;;;;13.43;6.53;;;;;;;;;;4978321;28;20778;-82
2021/12/19 00:18:32;;;;;;;12.73;6.05;;;;;;;;;;4993019;28;20066;-82
2021/12/19 00:20:59;;;;;;;13.68;6.60;;;;;;;;;;4988723;28;20040;-82
2021/12/19 00:23:28;;;;;;;16.58;8.05;;;;;;;;;;4995562;28;20037;-82
2021/12/19 00:25:56;;;;;;;13.18;6.82;;;;;;;;;;4976374;28;20057;-82
2021/12/19 00:28:24;;;;;;;12.05;6.47;;;;;;;;;;4992647;28;20156;-82
2021/12/19 00:30:52;;;;;;;15.50;7.35;;;;;;;;;;4990806;28;20151;-82
2021/12/19 00:33:22;;;;;;;11.88;6.60;;;;;;;;;;4996377;28;20045;-82
2021/12/19 00:35:51;;;;;;;11.88;6.00;;;;;;;;;;4995122;28;20041;-82
2021/12/19 00:38:20;;;;;;;13.15;6.25;;;;;;;;;;4980925;28;20033;-82
2021/12/19 00:40:50;;;;;;;12.18;6.60;;;;;;;;;;4988646;28;20041;-83
2021/12/19 00:43:32;;;;;;;17.52;8.68;;;;;;;;;;4962820;28;20049;-82
2021/12/19 00:46:05;;;;;;;13.85;7.40;;;;;;;;;;4995044;28;20545;-83
2021/12/19 00:48:32;;;;;;;14.27;8.15;;;;;;;;;;5011043;28;20041;-82
2021/12/19 00:51:00;;;;;;;15.95;8.68;;;;;;;;;;5012449;28;20029;-81
2021/12/19 00:53:29;;;;;;;17.23;9.98;;;;;;;;;;5015599;28;20041;-84
2021/12/19 00:55:58;;;;;;;17.30;9.05;;;;;;;;;;5007495;28;20180;-81
2021/12/19 00:58:36;;;;;;;15.80;8.07;;;;;;;;;;5010667;28;20142;-83
2021/12/19 01:01:06;;;;;;;16.38;8.93;;;;;;;;;;4991666;28;20495;-83
2021/12/19 01:03:33;;;;;;;14.30;7.05;;;;;;;;;;4984075;28;20033;-83
2021/12/19 01:06:01;;;;;;;13.23;6.97;;;;;;;;;;4990640;28;20033;-83
2021/12/19 01:08:28;;;;;;;12.25;6.55;;;;;;;;;;4991139;28;20215;-82
2021/12/19 01:10:56;;;;;;;11.80;5.60;;;;;;;;;;5014137;28;20037;-82
2021/12/19 01:13:24;;;;;;;10.48;5.03;;;;;;;;;;5019992;28;20061;-82
2021/12/19 01:15:55;;;;;;;11.23;4.68;;;;;;;;;;4993821;28;20033;-82
2021/12/19 01:18:25;;;;;;;7.93;3.67;;;;;;;;;;5015617;28;20100;-83
2021/12/19 01:20:53;;;;;;;9.93;3.78;;;;;;;;;;5001871;28;20068;-82
2021/12/19 01:23:21;;;;;;;8.90;3.80;;;;;;;;;;5000788;28;20036;-83
2021/12/19 01:25:50;;;;;;;8.13;3.72;;;;;;;;;;4998315;28;20045;-82
2021/12/19 01:28:23;;;;;;;9.80;4.40;;;;;;;;;;5013878;28;20048;-83
2021/12/19 01:30:59;;;;;;;12.23;5.95;;;;;;;;;;5001110;28;20048;-83
2021/12/19 01:33:28;;;;;;;15.15;6.78;;;;;;;;;;4965454;28;20627;-83
2021/12/19 01:35:57;;;;;;;14.43;7.63;;;;;;;;;;4988411;28;20787;-84
2021/12/19 01:38:25;;;;;;;19.25;7.80;;;;;;;;;;4993182;28;20580;-83
2021/12/19 01:40:56;;;;;;;12.98;6.80;;;;;;;;;;4992766;28;21265;-82
2021/12/19 01:43:25;;;;;;;12.88;5.97;;;;;;;;;;4984778;28;20053;-83
2021/12/19 01:45:55;;;;;;;13.95;6.82;;;;;;;;;;4995478;28;20053;-82
2021/12/19 01:48:22;;;;;;;11.43;6.05;;;;;;;;;;4989452;28;20044;-82
2021/12/19 01:50:52;;;;;;;12.00;6.03;;;;;;;;;;4999228;28;20050;-82
2021/12/19 01:53:19;;;;;;;12.38;6.07;;;;;;;;;;5015835;28;20029;-83
2021/12/19 01:55:48;;;;;;;12.20;5.75;;;;;;;;;;5019064;28;20047;-83
2021/12/19 01:58:17;;;;;;;12.95;6.47;;;;;;;;;;5010147;28;20033;-83
2021/12/19 02:00:48;;;;;;;15.63;8.15;;;;;;;;;;5014824;28;20045;-83
2021/12/19 02:03:21;;;;;;;13.15;6.80;;;;;;;;;;4987442;28;20044;-81
2021/12/19 02:05:50;;;;;;;14.73;6.57;;;;;;;;;;5013161;28;20106;-83
2021/12/19 02:08:18;;;;;;;14.85;6.78;;;;;;;;;;5008475;28;20033;-84
2021/12/19 02:10:46;;;;;;;15.45;6.55;;;;;;;;;;5015978;28;20127;-83
2021/12/19 02:13:15;;;;;;;11.80;5.35;;;;;;;;;;5025213;28;22748;-82
2021/12/19 02:15:47;;;;;;;12.90;6.72;;;;;;;;;;5015247;28;20044;-84
2021/12/19 02:18:17;;;;;;;15.60;9.50;;;;;;;;;;5009628;28;20041;-82
2021/12/19 02:20:52;;;;;;;11.82;6.40;;;;;;;;;;5012922;28;20179;-82
2021/12/19 02:23:21;;;;;;;14.23;7.40;;;;;;;;;;4994150;28;20116;-83
2021/12/19 02:25:51;;;;;;;14.95;8.40;;;;;;;;;;5013344;28;20056;-83
2021/12/19 02:28:20;;;;;;;15.85;8.20;;;;;;;;;;5011303;28;20029;-82
2021/12/19 02:30:49;;;;;;;17.10;8.70;;;;;;;;;;5014575;28;20083;-83
2021/12/19 02:33:22;;;;;;;11.40;5.82;;;;;;;;;;5019105;28;20040;-83
2021/12/19 02:49:51;;;;;;;14.07;6.93;;;;;;;;;;5000234;28;20526;-82
2021/12/19 02:52:20;;;;;;;13.73;7.47;;;;;;;;;;4982106;28;20083;-82
2021/12/19 02:55:06;;;;;;;11.98;6.57;;;;;;;;;;4952096;28;20042;-82
2021/12/19 02:57:39;;;;;;;11.43;6.35;;;;;;;;;;4957250;28;20498;-83
2021/12/19 03:00:15;;;;;;;10.73;5.55;;;;;;;;;;4943928;28;20149;-82
2021/12/19 03:02:44;;;;;;;10.88;5.22;;;;;;;;;;4957316;28;20034;-82
2021/12/19 03:05:13;;;;;;;11.07;5.60;;;;;;;;;;4953603;28;20049;-81
2021/12/19 03:07:43;;;;;;;10.50;4.63;;;;;;;;;;4961578;28;20097;-82
2021/12/19 03:18:30;;;;;;;11.85;5.10;;;;;;;;;;4987093;28;20154;-82
2021/12/19 03:20:58;;;;;;;11.80;5.32;;;;;;;;;;4964666;28;20034;-82
2021/12/19 03:23:26;;;;;;;13.63;5.47;;;;;;;;;;4938706;28;20039;-81
2021/12/19 03:25:53;;;;;;;12.15;5.20;;;;;;;;;;4935399;28;20093;-82
2021/12/19 03:28:21;;;;;;;12.30;5.22;;;;;;;;;;4940463;28;20117;-82
2021/12/19 03:31:09;;;;;;;9.27;4.20;;;;;;;;;;4944271;28;20038;-82
2021/12/19 03:33:38;;;;;;;9.20;3.78;;;;;;;;;;4959808;28;20806;-82
2021/12/19 03:36:28;;;;;;;8.85;3.67;;;;;;;;;;4955033;28;20125;-82
2021/12/19 03:39:25;;;;;;;8.70;3.40;;;;;;;;;;4938806;28;20054;-82
2021/12/19 03:42:03;;;;;;;8.60;3.60;;;;;;;;;;4973797;28;20030;-84
2021/12/19 03:44:32;;;;;;;8.23;3.17;;;;;;;;;;4979006;28;20041;-83
2021/12/19 03:47:00;;;;;;;9.85;3.55;;;;;;;;;;4968373;28;20568;-82
2021/12/19 03:49:27;;;;;;;8.75;3.63;;;;;;;;;;4978481;28;20034;-82
2021/12/19 03:51:54;;;;;;;8.93;3.70;;;;;;;;;;4962314;28;20042;-82
2021/12/19 03:54:23;;;;;;;10.90;4.07;;;;;;;;;;4972473;28;20065;-81
2021/12/19 03:57:04;;;;;;;10.65;3.63;;;;;;;;;;4964750;28;20041;-82
2021/12/19 03:59:31;;;;;;;;;;;;;;;;;;4982537;28;20045;-81
2021/12/19 04:01:59;;;;;;;9.70;3.38;;;;;;;;;;4955461;28;19949;-82
2021/12/19 04:04:26;;;;;;;9.70;3.75;;;;;;;;;;4945876;28;20039;-82
2021/12/19 04:06:55;;;;;;;7.85;3.20;;;;;;;;;;4943658;28;20045;-83
2021/12/19 04:09:24;;;;;;;8.73;2.97;;;;;;;;;;4951668;28;20030;-82
2021/12/19 04:11:55;;;;;;;7.72;3.15;;;;;;;;;;4968651;28;20148;-82
2021/12/19 04:14:25;;;;;;;9.45;3.05;;;;;;;;;;5015616;28;20033;-82
2021/12/19 04:16:53;;;;;;;9.00;3.50;;;;;;;;;;5001145;28;20033;-82
2021/12/19 04:19:25;;;;;;;8.25;3.13;;;;;;;;;;4994073;28;20045;-82
2021/12/19 04:21:58;;;;;;;9.65;3.90;;;;;;;;;;4996396;28;20041;-81
2021/12/19 04:24:25;;;;;;;10.05;3.78;;;;;;;;;;5000362;28;20124;-83
2021/12/19 04:26:53;;;;;;;8.93;3.20;;;;;;;;;;4996578;28;20018;-83
2021/12/19 04:29:24;;;;;;;8.35;3.40;;;;;;;;;;5000750;28;20037;-83
2021/12/19 04:31:56;;;;;;;8.75;3.15;;;;;;;;;;4991608;28;20039;-83
2021/12/19 04:34:24;;;;;;;7.47;3.05;;;;;;;;;;4998557;28;20072;-83
2021/12/19 04:37:00;;;;;;;8.95;3.63;;;;;;;;;;4996290;28;20115;-84
2021/12/19 05:04:25;;;;;;;5.80;2.05;;;;;;;;;;4989916;28;20048;-83
2021/12/19 05:15:13;;;;;;;6.03;1.92;;;;;;;;;;4952864;28;20100;-82
2021/12/19 05:17:40;;;;;;;6.53;2.10;;;;;;;;;;4963199;28;20041;-82
2021/12/19 05:20:21;;;;;;;5.97;1.85;;;;;;;;;;4974443;28;20029;-81
2021/12/19 05:22:56;;;;;;;5.55;1.90;;;;;;;;;;4963777;28;20429;-82
2021/12/19 05:25:26;;;;;;;5.32;1.80;;;;;;;;;;4968859;28;20052;-82
2021/12/19 05:27:56;;;;;;;7.43;2.45;;;;;;;;;;4978508;28;20120;-82
2021/12/19 05:30:24;;;;;;;7.35;2.20;;;;;;;;;;4980271;28;20033;-82
2021/12/19 05:32:52;;;;;;;7.20;2.70;;;;;;;;;;4962433;28;20521;-82
2021/12/19 05:46:45;;;;;;;7.40;2.40;;;;;;;;;;4923492;28;20039;-81
2021/12/19 05:49:13;;;;;;;6.05;2.20;;;;;;;;;;4914923;28;20035;-82
2021/12/19 05:51:44;;;;;;;7.38;2.60;;;;;;;;;;4922611;28;20977;-81
2021/12/19 05:54:12;;;;;;;7.40;2.53;;;;;;;;;;4919769;28;20594;-83
2021/12/19 05:56:41;;;;;;;8.68;2.67;;;;;;;;;;4922145;28;20046;-81
2021/12/19 05:59:10;;;;;;;7.63;3.10;;;;;;;;;;4921783;28;20047;-81
2021/12/19 06:01:40;;;;;;;7.97;2.85;;;;;;;;;;4907835;28;20113;-82
2021/12/19 06:04:08;;;;;;;8.10;2.88;;;;;;;;;;4922983;28;20116;-81
2021/12/19 06:06:35;;;;;;;10.85;2.78;;;;;;;;;;4929355;28;20035;-81
2021/12/19 06:09:03;;;;;;;11.57;3.40;;;;;;;;;;4921830;28;20040;-82
2021/12/19 06:11:31;;;;;;;11.90;5.25;;;;;;;;;;4924104;28;20346;-82
2021/12/19 06:13:58;;;;;;;11.77;5.00;;;;;;;;;;4923275;28;20103;-81
2021/12/19 06:16:26;;;;;;;12.55;4.80;;;;;;;;;;4907740;28;20059;-81
2021/12/19 06:18:52;;;;;;;9.38;3.80;;;;;;;;;;4926995;28;20804;-82
2021/12/19 06:21:21;;;;;;;9.13;3.95;;;;;;;;;;4912216;28;20027;-81
2021/12/19 06:23:47;;;;;;;10.50;3.67;;;;;;;;;;4982360;28;20509;-82
2021/12/19 06:26:15;;;;;;;9.18;3.47;;;;;;;;;;4981164;28;20570;-82
2021/12/19 06:28:45;;;;;;;11.43;3.42;;;;;;;;;;4970163;28;20510;-82
2021/12/19 06:31:12;;;;;;;11.65;3.17;;;;;;;;;;4959598;28;20577;-81
2021/12/19 06:33:41;;;;;;;9.68;3.08;;;;;;;;;;4960840;28;20247;-82
2021/12/19 06:36:09;;;;;;;9.10;2.80;;;;;;;;;;4955018;28;20136;-82
2021/12/19 06:38:37;;;;;;;8.88;3.13;;;;;;;;;;4944025;28;20105;-82
2021/12/19 06:41:06;;;;;;;10.63;3.00;;;;;;;;;;4960147;28;20040;-82
2021/12/19 06:43:36;;;;;;;9.65;3.00;;;;;;;;;;4984936;28;20134;-82
2021/12/19 06:46:05;;;;;;;7.80;2.55;;;;;;;;;;4980951;28;20045;-81
2021/12/19 06:48:33;;;;;;;9.07;3.35;;;;;;;;;;4978136;28;20069;-82
2021/12/19 06:51:01;;;;;;;8.65;3.08;;;;;;;;;;4976039;28;20061;-82
2021/12/19 06:53:31;;;;;;;9.48;4.30;;;;;;;;;;4968130;28;20402;-82
2021/12/19 06:56:00;;;;;;;8.95;4.00;;;;;;;;;;4977826;28;20046;-82
2021/12/19 06:58:28;;;;;;;8.68;3.75;;;;;;;;;;4973165;28;20038;-82
2021/12/19 07:00:57;;;;;;;10.60;4.68;;;;;;;;;;4964455;28;20033;-82
2021/12/19 07:03:25;;;;;;;9.00;3.53;;;;;;;;;;4974342;28;20038;-81
2021/12/19 07:05:55;;;;;;;8.48;3.05;;;;;;;;;;4980532;28;20038;-81
2021/12/19 07:08:23;;;;;;;7.47;2.90;;;;;;;;;;4981502;28;20041;-82
2021/12/19 07:10:51;;;;;;;10.48;4.05;;;;;;;;;;4982131;28;20673;-82
2021/12/19 07:13:22;;;;;;;10.18;3.38;;;;;;;;;;4972675;28;20050;-82
2021/12/19 07:15:59;;;;;;;12.40;4.72;;;;;;;;;;4961752;28;20129;-82
2021/12/19 07:18:28;;;;;;;13.57;5.97;;;;;;;;;;4975342;28;20779;-82
2021/12/19 07:20:57;;;;;;;13.23;5.53;;;;;;;;;;4965635;28;20041;-81
2021/12/19 07:23:24;;;;;;;11.45;4.95;;;;;;;;;;4992398;28;20045;-81
2021/12/19 07:25:53;;;;;;;10.68;4.25;;;;;;;;;;5004519;28;20103;-84
2021/12/19 07:28:21;;;;;;;9.82;3.90;;;;;;;;;;4983894;28;20043;-84
2021/12/19 07:30:51;;;;;;;11.25;3.97;;;;;;;;;;5005279;28;20125;-82
2021/12/19 07:33:18;;;;;;;10.73;4.70;;;;;;;;;;5012185;28;20103;-82
2021/12/19 07:35:48;;;;;;;10.55;5.03;;;;;;;;;;5001499;28;20033;-82
2021/12/19 07:38:27;;;;;;;12.80;6.93;;;;;;;;;;4988092;28;20068;-81
2021/12/19 07:40:56;;;;;;;15.13;8.18;;;;;;;;;;4985486;28;20128;-82
2021/12/19 07:43:24;;;;;;;16.98;9.05;;;;;;;;;;4997986;28;20044;-82
2021/12/19 07:45:53;;;;;;;16.63;9.38;;;;;;;;;;5003078;28;20045;-83
2021/12/19 07:48:23;;;;;;;13.48;7.55;;;;;;;;;;5003496;28;20780;-82
2021/12/19 07:50:50;;;;;;;15.52;8.90;;;;;;;;;;5013358;28;20087;-82
2021/12/19 07:53:18;;;;;;;15.82;8.75;;;;;;;;;;5016662;28;20109;-83
2021/12/19 07:55:47;;;;;;;15.00;8.52;;;;;;;;;;4988704;28;20037;-82
2021/12/19 07:58:15;;;;;;;16.38;8.88;;;;;;;;;;4987359;28;20137;-83
2021/12/19 08:00:42;;;;;;;15.95;9.85;;;;;;;;;;5016708;28;20037;-83
2021/12/19 08:03:09;;;;;;;21.02;11.88;;;;;;;;;;4994477;28;20041;-80
2021/12/19 08:05:38;;;;;;;24.15;13.75;;;;;;;;;;5002484;28;20029;-82
2021/12/19 08:08:10;;;;;;;28.10;16.20;;;;;;;;;;4999479;28;20037;-82
2021/12/19 08:13:09;;;;;;;16.73;9.98;;;;;;;;;;5014941;28;20037;-82
2021/12/19 08:15:38;;;;;;;17.17;9.82;;;;;;;;;;5016290;28;20037;-82
2021/12/19 08:18:07;;;;;;;15.25;7.32;;;;;;;;;;4996438;28;20227;-82
2021/12/19 08:20:40;;;;;;;13.02;6.47;;;;;;;;;;4994986;28;20121;-84
2021/12/19 08:23:07;;;;;;;15.27;7.72;;;;;;;;;;5008055;28;20030;-82
2021/12/19 08:25:35;;;;;;;14.85;7.95;;;;;;;;;;5010907;28;20036;-85
2021/12/19 08:28:05;;;;;;;13.98;6.53;;;;;;;;;;5005391;28;20048;-83
2021/12/19 08:30:32;;;;;;;13.77;6.90;;;;;;;;;;5021487;28;20065;-83
2021/12/19 08:32:59;;;;;;;16.30;9.15;;;;;;;;;;4992383;28;20041;-83
2021/12/19 08:35:27;;;;;;;15.60;7.45;;;;;;;;;;4985116;28;20092;-83
2021/12/19 08:37:56;;;;;;;16.33;7.45;;;;;;;;;;4993408;28;20132;-84
2021/12/19 08:40:27;;;;;;;13.73;7.38;;;;;;;;;;4999184;28;20558;-83
2021/12/19 08:42:57;;;;;;;14.15;6.80;;;;;;;;;;4996287;28;20144;-84
2021/12/19 08:45:26;;;;;;;13.13;6.47;;;;;;;;;;4999637;28;20042;-83
2021/12/19 08:47:55;;;;;;;16.25;7.20;;;;;;;;;;4995858;28;20134;-83
2021/12/19 08:50:24;;;;;;;14.35;8.85;;;;;;;;;;4991186;28;20502;-83
2021/12/19 08:52:53;;;;;;;15.75;9.25;;;;;;;;;;5000763;28;20080;-82
2021/12/19 08:55:23;;;;;;;13.73;8.43;;;;;;;;;;4983398;28;20124;-82
2021/12/19 08:57:51;;;;;;;15.40;8.05;;;;;;;;;;4999009;28;20099;-83
2021/12/19 09:00:21;;;;;;;16.20;9.48;;;;;;;;;;4980164;28;20467;-83
2021/12/19 09:02:53;;;;;;;13.90;7.68;;;;;;;;;;4963349;28;20179;-83
2021/12/19 09:05:20;;;;;;;17.95;8.18;;;;;;;;;;4984483;28;20619;-82
2021/12/19 09:07:50;;;;;;;13.73;6.72;;;;;;;;;;4996984;28;20076;-83
2021/12/19 09:10:17;;;;;;;15.27;7.07;;;;;;;;;;4975133;28;20469;-82
2021/12/19 09:12:48;;;;;;;14.52;6.68;;;;;;;;;;4995295;28;20053;-84
2021/12/19 09:15:16;;;;;;;16.17;7.88;;;;;;;;;;4980470;28;20029;-82
2021/12/19 09:17:45;;;;;;;15.07;8.00;;;;;;;;;;5007086;28;20044;-84
2021/12/19 09:20:15;;;;;;;16.27;9.05;;;;;;;;;;4979371;28;21008;-84
2021/12/19 09:22:47;;;;;;;16.02;8.95;;;;;;;;;;4996790;28;20055;-82
2021/12/19 09:25:13;;;;;;;16.92;9.68;;;;;;;;;;4994145;28;20045;-83
2021/12/19 09:27:40;;;;;;;15.95;9.70;;;;;;;;;;4996951;28;20127;-82
2021/12/19 09:30:09;;;;;;;17.85;11.23;;;;;;;;;;4992766;28;20042;-83
2021/12/19 09:32:35;;;;;;;17.38;9.63;;;;;;;;;;4998057;28;20056;-82
2021/12/19 09:35:07;;;;;;;18.88;10.65;;;;;;;;;;5011731;28;20026;-82
2021/12/19 09:37:40;;;;;;;17.80;9.93;;;;;;;;;;4983625;28;20069;-84
2021/12/19 09:40:09;;;;;;;17.40;9.98;;;;;;;;;;4983700;28;20795;-84
2021/12/19 09:42:37;;;;;;;17.90;9.23;;;;;;;;;;5002984;28;20767;-82
2021/12/19 09:45:07;;;;;;;18.60;11.55;;;;;;;;;;4997630;28;20053;-82
2021/12/19 09:47:35;;;;;;;18.10;10.30;;;;;;;;;;4997411;28;20564;-81
2021/12/19 09:50:05;;;;;;;21.20;11.23;;;;;;;;;;4981660;28;20033;-82
2021/12/19 09:52:36;;;;;;;18.30;11.00;;;;;;;;;;4997777;28;20080;-85
2021/12/19 09:55:05;;;;;;;15.15;8.20;;;;;;;;;;4994015;28;20034;-84
2021/12/19 09:57:33;;;;;;;12.68;7.00;;;;;;;;;;4989486;28;20041;-81
2021/12/19 10:00:03;;;;;;;15.38;7.47;;;;;;;;;;4980603;28;20027;-84
2021/12/19 10:02:32;;;;;;;14.57;7.57;;;;;;;;;;4995632;28;20740;-81
2021/12/19 10:05:14;;;;;;;15.20;7.80;;;;;;;;;;4996245;28;20037;-82
2021/12/19 10:07:52;;;;;;;14.80;7.28;;;;;;;;;;4983195;28;20065;-81
2021/12/19 10:10:26;;;;;;;16.13;6.88;;;;;;;;;;4984172;28;20090;-84
2021/12/19 10:12:58;;;;;;;12.73;6.45;;;;;;;;;;4989223;28;20042;-84
2021/12/19 10:15:37;;;;;;;13.38;7.13;;;;;;;;;;4979805;28;20062;-84
2021/12/19 10:18:18;;;;;;;14.63;7.30;;;;;;;;;;4977280;28;20121;-84
2021/12/19 10:20:53;;;;;;;14.30;7.20;;;;;;;;;;4969462;28;20044;-84
2021/12/19 10:23:24;;;;;;;14.90;7.25;;;;;;;;;;4956869;28;20049;-82
2021/12/19 10:26:01;;;;;;;16.58;7.93;;;;;;;;;;4974112;28;20124;-83
2021/12/19 10:28:32;;;;;;;15.15;8.85;;;;;;;;;;4988520;28;20041;-84
2021/12/19 10:31:01;;;;;;;17.27;10.15;;;;;;;;;;5003226;28;20206;-84
2021/12/19 10:33:33;;;;;;;16.20;9.23;;;;;;;;;;5016700;28;20032;-84
2021/12/19 10:36:03;;;;;;;16.27;9.02;;;;;;;;;;5019552;28;20033;-83
2021/12/19 10:38:34;;;;;;;13.68;7.53;;;;;;;;;;5020325;28;20136;-83
2021/12/19 10:41:23;;;;;;;14.40;7.45;;;;;;;;;;5018816;28;20053;-83
2021/12/19 10:44:00;;;;;;;15.20;7.13;;;;;;;;;;5024441;28;20037;-82
2021/12/19 10:46:40;;;;;;;14.30;7.65;;;;;;;;;;5027812;28;20033;-84
2021/12/19 10:49:33;;;;;;;10.85;5.15;;;;;;;;;;5023589;28;20045;-83
2021/12/19 10:52:04;;;;;;;12.32;6.75;;;;;;;;;;5017996;28;20033;-82
2021/12/19 10:54:35;;;;;;;10.80;4.55;;;;;;;;;;5022786;28;20033;-84
2021/12/19 10:57:23;;;;;;;11.27;4.90;;;;;;;;;;5018264;28;20021;-84
2021/12/19 10:59:49;;;;;;;12.05;5.95;;;;;;;;;;5011061;28;20502;-83
2021/12/19 11:02:34;;;;;;;11.68;5.60;;;;;;;;;;5013730;28;20853;-83
2021/12/19 11:05:01;;;;;;;8.98;3.97;;;;;;;;;;5016312;28;20044;-82
2021/12/19 11:07:29;;;;;;;15.32;8.05;;;;;;;;;;5016908;28;20846;-84
2021/12/19 11:09:56;;;;;;;11.85;6.13;;;;;;;;;;4999424;28;20069;-84
2021/12/19 11:12:26;;;;;;;10.57;4.60;;;;;;;;;;5019004;28;20055;-83
2021/12/19 11:14:55;;;;;;;9.73;3.63;;;;;;;;;;5015173;28;20565;-82
2021/12/19 11:17:23;;;;;;;11.05;4.32;;;;;;;;;;5017362;28;20036;-82
2021/12/19 11:19:56;;;;;;;11.65;5.32;;;;;;;;;;5018047;28;20075;-83
2021/12/19 11:22:27;;;;;;;13.82;6.78;;;;;;;;;;5017409;28;20040;-83
2021/12/19 11:24:59;;;;;;;13.60;6.28;;;;;;;;;;5017831;28;20127;-82
2021/12/19 11:27:28;;;;;;;10.52;5.63;;;;;;;;;;5032410;28;20037;-82
2021/12/19 11:29:57;;;;;;;14.95;6.18;;;;;;;;;;5012415;28;20043;-85
2021/12/19 11:32:29;;;;;;;11.02;5.03;;;;;;;;;;5018245;28;20069;-85
2021/12/19 11:35:12;;;;;;;8.95;3.58;;;;;;;;;;5012870;28;20037;-83
2021/12/19 11:37:53;;;;;;;9.75;4.18;;;;;;;;;;5011889;28;20041;-83
2021/12/19 11:40:26;;;;;;;9.40;2.97;;;;;;;;;;5016834;28;20040;-83
2021/12/19 11:43:01;;;;;;;5.88;2.28;;;;;;;;;;5014634;28;20030;-83
2021/12/19 11:45:38;;;;;;;7.82;2.75;;;;;;;;;;5018383;28;20040;-83
2021/12/19 11:48:26;;;;;;;6.55;2.20;;;;;;;;;;5012403;28;20032;-83
2021/12/19 11:51:22;;;;;;;6.60;1.75;;;;;;;;;;4994046;28;20048;-83
2021/12/19 11:53:49;;;;;;;5.82;2.10;;;;;;;;;;4997119;28;20025;-83
2021/12/19 11:56:18;;;;;;;10.57;4.20;;;;;;;;;;4998500;28;20033;-83
2021/12/19 11:58:56;;;;;;;8.80;4.07;;;;;;;;;;5010313;28;20041;-83
2021/12/19 12:01:47;;;;;;;8.52;3.30;;;;;;;;;;5003711;28;20037;-83
2021/12/19 12:04:25;;;;;;;9.32;3.05;;;;;;;;;;5019178;28;20037;-83
2021/12/19 12:06:58;;;;;;;7.38;2.72;;;;;;;;;;5014786;28;20077;-83
2021/12/19 12:09:32;;;;;;;9.25;3.40;;;;;;;;;;5037254;28;20056;-84
2021/12/19 12:12:02;;;;;;;10.52;4.22;;;;;;;;;;5030220;28;20035;-84
2021/12/19 12:14:33;;;;;;;8.05;2.83;;;;;;;;;;5016148;28;20211;-84
2021/12/19 12:17:03;;;;;;;9.52;3.28;;;;;;;;;;5031272;28;20595;-82
2021/12/19 12:19:49;;;;;;;8.30;3.58;;;;;;;;;;5017811;28;20090;-82
2021/12/19 12:22:27;;;;;;;7.13;2.70;;;;;;;;;;5013912;28;20041;-83
2021/12/19 12:25:15;;;;;;;8.00;3.20;;;;;;;;;;5019859;28;20041;-83
2021/12/19 12:28:03;;;;;;;7.53;2.67;;;;;;;;;;5028012;28;20147;-83
2021/12/19 12:30:42;;;;;;;4.85;1.77;;;;;;;;;;5034854;28;20109;-83
2021/12/19 12:33:11;;;;;;;6.70;2.40;;;;;;;;;;5012569;28;20417;-83
2021/12/19 12:35:41;;;;;;;7.05;2.67;;;;;;;;;;5022875;28;20025;-83
2021/12/19 12:38:11;;;;;;;8.27;3.00;;;;;;;;;;5003823;28;20068;-83
2021/12/19 12:40:49;;;;;;;7.35;2.35;;;;;;;;;;4999168;28;20040;-83
2021/12/19 12:43:20;;;;;;;4.32;1.55;;;;;;;;;;5011365;28;20177;-82
2021/12/19 12:46:01;;;;;;;5.88;2.10;;;;;;;;;;5033764;28;20048;-82
2021/12/19 12:48:36;;;;;;;6.38;2.17;;;;;;;;;;5014631;28;20041;-82
2021/12/19 12:51:09;;;;;;;6.47;1.98;;;;;;;;;;5031737;28;20036;-82
2021/12/19 12:53:56;;;;;;;9.52;3.10;;;;;;;;;;5011710;28;20026;-82
2021/12/19 12:56:33;;;;;;;10.98;6.03;;;;;;;;;;5016834;28;20116;-82
2021/12/19 12:59:10;;;;;;;9.93;4.60;;;;;;;;;;5009728;28;20044;-84
2021/12/19 13:01:43;;;;;;;8.07;2.47;;;;;;;;;;5019355;28;20310;-84
2021/12/19 13:04:26;;;;;;;5.40;1.83;;;;;;;;;;5012841;28;21784;-82
2021/12/19 13:07:03;;;;;;;6.95;2.47;;;;;;;;;;5014999;28;20034;-81
2021/12/19 13:09:40;;;;;;;9.38;3.65;;;;;;;;;;5018456;28;20037;-82
2021/12/19 13:12:21;;;;;;;11.32;3.10;;;;;;;;;;5012403;28;20038;-81
2021/12/19 13:14:54;;;;;;;9.30;3.75;;;;;;;;;;4997404;28;20168;-82
2021/12/19 13:17:45;;;;;;;8.52;3.70;;;;;;;;;;4987149;28;20068;-82
2021/12/19 13:20:20;;;;;;;10.07;4.57;;;;;;;;;;4986900;28;20232;-82
2021/12/19 13:22:51;;;;;;;8.30;3.05;;;;;;;;;;4996516;28;20091;-83
2021/12/19 13:25:42;;;;;;;10.18;4.30;;;;;;;;;;4976645;28;20513;-82
2021/12/19 13:28:20;;;;;;;6.72;2.42;;;;;;;;;;4983843;28;20224;-82
2021/12/19 13:30:48;;;;;;;9.27;4.47;;;;;;;;;;4960506;28;20038;-82
2021/12/19 13:33:18;;;;;;;12.18;3.20;;;;;;;;;;4955431;28;20029;-82
2021/12/19 13:35:51;;;;;;;8.68;3.30;;;;;;;;;;4977850;28;20030;-82
2021/12/19 13:38:20;;;;;;;6.93;2.70;;;;;;;;;;4988878;28;20037;-82
2021/12/19 13:41:18;;;;;;;8.77;3.47;;;;;;;;;;4991552;28;20034;-84
2021/12/19 13:43:46;;;;;;;11.27;4.75;;;;;;;;;;4917687;28;20058;-81
2021/12/19 13:46:16;;;;;;;7.85;3.20;;;;;;;;;;4910799;28;21887;-82
2021/12/19 13:48:51;;;;;;;7.65;2.63;;;;;;;;;;4933960;28;20120;-82
2021/12/19 13:51:27;;;;;;;7.38;2.67;;;;;;;;;;4917079;28;20070;-82
2021/12/19 13:53:56;;;;;;;8.50;4.05;;;;;;;;;;4877570;29;20042;-82
2021/12/19 13:56:46;;;;;;;8.43;3.10;;;;;;;;;;4867063;29;20051;-82
2021/12/19 13:59:21;;;;;;;8.90;3.25;;;;;;;;;;4876055;29;20478;-83
2021/12/19 14:01:51;;;;;;;5.97;2.30;;;;;;;;;;4867065;29;20168;-82
2021/12/19 14:04:28;;;;;;;7.40;2.97;;;;;;;;;;4877166;29;20040;-83
2021/12/19 14:06:59;;;;;;;10.38;4.47;;;;;;;;;;4847554;29;20155;-83
2021/12/19 14:09:26;;;;;;;10.13;4.20;;;;;;;;;;4849825;29;20064;-83
2021/12/19 14:11:58;;;;;;;8.95;3.65;;;;;;;;;;4881925;29;20044;-83
2021/12/19 14:14:31;;;;;;;9.35;2.90;;;;;;;;;;4863242;29;20212;-84
2021/12/19 14:17:02;;;;;;;11.07;3.63;;;;;;;;;;4877452;28;20044;-83
2021/12/19 14:19:34;;;;;;;24.55;16.25;;;;;;;;;;4890924;28;20043;-82
2021/12/19 14:22:06;;;;;;;10.13;4.50;;;;;;;;;;4900279;28;20128;-82
2021/12/19 14:24:35;;;;;;;13.23;6.60;;;;;;;;;;4918640;28;20527;-82
2021/12/19 14:27:15;;;;;;;10.70;3.83;;;;;;;;;;4919770;28;20154;-83
2021/12/19 14:29:43;;;;;;;9.77;4.80;;;;;;;;;;4923812;28;20620;-81
2021/12/19 14:32:18;;;;;;;8.73;3.70;;;;;;;;;;4903266;28;20050;-82
2021/12/19 14:34:51;;;;;;;8.48;3.50;;;;;;;;;;4923317;28;20042;-82
2021/12/19 14:37:28;;;;;;;10.48;5.50;;;;;;;;;;4960168;28;20044;-82
2021/12/19 14:40:14;;;;;;;9.77;4.72;;;;;;;;;;4971282;28;20133;-82
2021/12/19 14:42:43;;;;;;;7.82;3.15;;;;;;;;;;4984095;28;20038;-82
2021/12/19 14:45:27;;;;;;;9.38;4.00;;;;;;;;;;5004259;28;20850;-81
2021/12/19 14:48:25;;;;;;;8.55;2.90;;;;;;;;;;5015745;28;20059;-82
2021/12/19 14:50:55;;;;;;;8.38;3.60;;;;;;;;;;5000934;28;20068;-82
2021/12/19 14:53:30;;;;;;;8.40;3.70;;;;;;;;;;5016676;28;20087;-82
2021/12/19 14:56:10;;;;;;;9.20;3.95;;;;;;;;;;5011601;28;20037;-82
2021/12/19 14:58:43;;;;;;;8.93;4.00;;;;;;;;;;4998860;28;20588;-82
2021/12/19 15:01:18;;;;;;;9.02;4.65;;;;;;;;;;5014086;28;20080;-82
2021/12/19 15:04:00;;;;;;;12.32;5.47;;;;;;;;;;5020868;28;20076;-82
2021/12/19 15:06:30;;;;;;;11.75;5.53;;;;;;;;;;5020347;28;20130;-83
2021/12/19 15:09:00;;;;;;;9.40;3.55;;;;;;;;;;5011119;28;20038;-81
2021/12/19 15:11:28;;;;;;;9.10;3.85;;;;;;;;;;5000930;28;20443;-81
2021/12/19 15:13:56;;;;;;;9.45;3.70;;;;;;;;;;5000429;28;20048;-84
2021/12/19 15:16:23;;;;;;;8.48;3.00;;;;;;;;;;4991877;28;21713;-81
2021/12/19 15:18:51;;;;;;;12.63;4.65;;;;;;;;;;4998623;28;20169;-81
2021/12/19 15:21:21;;;;;;;9.07;3.78;;;;;;;;;;5011733;28;20072;-81
2021/12/19 15:23:49;;;;;;;7.93;2.70;;;;;;;;;;5000475;28;20082;-82
2021/12/19 15:26:17;;;;;;;9.20;3.80;;;;;;;;;;4990112;28;20045;-82
2021/12/19 15:28:47;;;;;;;8.00;3.25;;;;;;;;;;5011506;28;20581;-82
2021/12/19 15:31:20;;;;;;;10.50;5.13;;;;;;;;;;5009190;28;22349;-82
2021/12/19 15:33:51;;;;;;;11.77;4.53;;;;;;;;;;5021264;28;20121;-82
2021/12/19 15:36:23;;;;;;;11.73;6.03;;;;;;;;;;5005444;28;20041;-85
2021/12/19 15:38:50;;;;;;;11.10;4.97;;;;;;;;;;4980035;28;20123;-82
2021/12/19 15:41:19;;;;;;;12.75;6.32;;;;;;;;;;4992357;28;20037;-81
2021/12/19 15:43:46;;;;;;;12.57;6.10;;;;;;;;;;4982347;28;20072;-83
2021/12/19 15:46:14;;;;;;;14.32;7.07;;;;;;;;;;4987251;28;20050;-81
2021/12/19 15:48:42;;;;;;;13.25;6.40;;;;;;;;;;5001972;28;20041;-83
2021/12/19 15:51:13;;;;;;;12.82;6.57;;;;;;;;;;4995167;28;20033;-82
2021/12/19 15:53:42;;;;;;;13.43;6.50;;;;;;;;;;4993774;28;20094;-82
2021/12/19 15:56:11;;;;;;;12.57;5.80;;;;;;;;;;4990601;28;20196;-81
2021/12/19 15:58:38;;;;;;;12.10;6.00;;;;;;;;;;4998305;28;20045;-81
2021/12/19 16:01:06;;;;;;;12.35;6.80;;;;;;;;;;4993156;28;20532;-81
2021/12/19 16:03:34;;;;;;;14.00;6.15;;;;;;;;;;5002125;28;20072;-84
2021/12/19 16:06:01;;;;;;;13.57;5.82;;;;;;;;;;5005847;28;20030;-83
2021/12/19 16:08:29;;;;;;;12.98;6.78;;;;;;;;;;4983138;28;20444;-83
2021/12/19 16:10:58;;;;;;;12.02;5.45;;;;;;;;;;4982189;28;20978;-83
2021/12/19 16:13:36;;;;;;;22.65;12.05;;;;;;;;;;4997316;28;20038;-83
2021/12/19 16:16:05;;;;;;;12.98;6.93;;;;;;;;;;4961265;28;20115;-84